Terminal Aerodrome Forecast
Issued by NWS

Home | Current Version | Previous Version | Text Only | Print | Product List | Glossary Off
Versions: 1 2 3 4 5 6 7 8 9 10 11 12 13 14 15 16 17 18 19 20 21 22 23

000
FTUS43 KGRB 250600 AAA
TAFATW
TAF AMD
KATW 250627Z 2506/2606 23008KT 6SM BR SCT007 OVC012
      TEMPO 2507/2509 3SM BR BKN007
     FM250900 27010KT 6SM BR BKN012 WS017/30035KT
     FM251200 27008KT P6SM SCT012 WS017/30035KT
     FM251500 28016G25KT P6SM SKC
     FM252300 28010KT P6SM SKC=

USA.gov is the U.S. government's official web portal to all federal, state and local government web resources and services.